createdAt,value
2022-10-24T00:09:38.857Z,57.37
2022-10-24T00:19:40.218Z,57.23
2022-10-24T00:29:41.575Z,56.87
2022-10-24T00:39:43.224Z,56.34
2022-10-24T00:50:00.881Z,56.33
2022-10-24T01:00:09.154Z,56.11
2022-10-24T01:10:32.360Z,56.02
2022-10-24T01:20:52.298Z,55.79
2022-10-24T01:31:08.054Z,55.63
2022-10-24T01:41:12.171Z,55.48
2022-10-24T01:51:14.640Z,55.52
2022-10-24T02:01:23.952Z,55.67
2022-10-24T02:11:25.514Z,55.59
2022-10-24T02:21:45.716Z,55.44
2022-10-24T02:31:56.957Z,55.37
2022-10-24T02:41:58.370Z,55.35
2022-10-24T02:51:59.772Z,55.31
2022-10-24T03:02:01.149Z,55.16
2022-10-24T03:12:03.008Z,54.80
2022-10-24T03:22:04.497Z,54.71
2022-10-24T03:32:06.445Z,54.41
2022-10-24T03:42:07.944Z,54.40
2022-10-24T03:52:09.361Z,54.38
2022-10-24T04:02:10.966Z,54.17
2022-10-24T04:12:12.384Z,54.11
2022-10-24T04:22:13.790Z,54.00
2022-10-24T04:32:15.214Z,53.70
2022-10-24T04:42:16.584Z,53.69
2022-10-24T04:52:17.997Z,53.67
2022-10-24T05:02:19.528Z,53.42
2022-10-24T05:12:20.959Z,52.97
2022-10-24T05:22:22.377Z,53.30
2022-10-24T05:32:23.874Z,52.76
2022-10-24T05:42:25.242Z,53.12
2022-10-24T05:52:26.599Z,52.81
2022-10-24T06:02:28.133Z,52.87
2022-10-24T06:12:29.634Z,52.58
2022-10-24T06:22:31.223Z,52.69
2022-10-24T06:32:32.602Z,52.56
2022-10-24T06:42:34.136Z,52.37
2022-10-24T06:52:36.752Z,52.28
2022-10-24T07:02:38.325Z,52.15
2022-10-24T07:12:40.039Z,51.78
2022-10-24T07:22:42.113Z,51.49
2022-10-24T07:32:43.688Z,51.17
2022-10-24T07:42:45.449Z,51.00
2022-10-24T07:52:46.817Z,50.35
2022-10-24T08:12:50.738Z,50.16
2022-10-24T08:22:52.951Z,49.86
2022-10-24T08:32:54.705Z,49.08
2022-10-24T08:42:56.202Z,49.05
2022-10-24T08:53:35.627Z,49.22
2022-10-24T09:04:02.609Z,49.03
2022-10-24T09:14:21.194Z,48.34
2022-10-24T09:24:43.387Z,48.14
2022-10-24T09:34:44.879Z,48.24
2022-10-24T09:44:47.010Z,48.54
2022-10-24T09:55:05.734Z,48.70
2022-10-24T10:05:06.959Z,48.70
2022-10-24T10:15:18.823Z,48.61
2022-10-24T10:25:31.183Z,48.25
2022-10-24T10:35:55.455Z,47.46
2022-10-24T10:46:11.488Z,47.60
2022-10-24T10:56:28.287Z,47.97
2022-10-24T11:07:08.339Z,48.16
2022-10-24T11:17:15.467Z,48.20
2022-10-24T11:27:21.517Z,48.29
2022-10-24T11:37:39.945Z,48.01
2022-10-24T11:47:59.620Z,47.78
2022-10-24T11:58:01.098Z,47.82
2022-10-24T12:08:26.327Z,47.93
2022-10-24T12:18:33.016Z,48.72
2022-10-24T12:28:34.667Z,48.84
2022-10-24T12:38:35.991Z,48.66
2022-10-24T12:48:37.381Z,48.98
2022-10-24T12:58:42.522Z,48.77
2022-10-24T13:09:06.027Z,49.00
2022-10-24T13:19:07.552Z,49.07
2022-10-24T13:29:13.542Z,49.23
2022-10-24T13:39:19.727Z,49.16
2022-10-24T13:49:38.363Z,49.19
2022-10-24T13:59:39.741Z,49.13
2022-10-24T14:09:42.124Z,49.30
2022-10-24T14:19:57.362Z,49.13
2022-10-24T14:30:00.926Z,49.01
2022-10-24T14:40:02.388Z,49.43
2022-10-24T14:50:03.924Z,49.16
2022-10-24T15:00:07.495Z,49.17
2022-10-24T15:10:13.253Z,48.65
2022-10-24T15:20:16.536Z,48.92
2022-10-24T15:30:21.417Z,49.15
2022-10-24T15:40:25.386Z,49.05
2022-10-24T15:50:26.780Z,49.53
2022-10-24T16:00:28.322Z,49.40
2022-10-24T16:10:29.717Z,49.82
2022-10-24T16:20:31.243Z,50.13
2022-10-24T16:30:33.144Z,50.42
2022-10-24T16:40:42.463Z,50.49
2022-10-24T16:50:46.512Z,50.55
2022-10-24T17:00:48.734Z,50.30
2022-10-24T17:10:50.332Z,50.58
2022-10-24T17:20:54.358Z,50.58
2022-10-24T17:30:55.786Z,50.54
2022-10-24T17:40:57.821Z,50.74
2022-10-24T17:50:59.559Z,51.01
2022-10-24T18:01:01.057Z,51.13
2022-10-24T18:11:03.347Z,51.51
2022-10-24T18:21:15.836Z,51.64
2022-10-24T18:31:18.810Z,52.00
2022-10-24T18:41:33.514Z,52.06
2022-10-24T18:51:38.396Z,52.01
2022-10-24T19:01:43.331Z,51.92
2022-10-24T19:11:44.858Z,52.06
2022-10-24T19:21:49.030Z,51.99
2022-10-24T19:31:51.301Z,52.16
2022-10-24T19:41:52.749Z,52.45
2022-10-24T19:51:54.231Z,52.32
2022-10-24T20:01:55.656Z,52.46
2022-10-24T20:11:57.279Z,52.75
2022-10-24T20:22:01.636Z,52.99
2022-10-24T20:32:04.032Z,53.28
2022-10-24T20:42:05.673Z,53.27
2022-10-24T20:52:07.172Z,53.42
2022-10-24T21:02:10.336Z,53.75
2022-10-24T21:12:11.825Z,53.74
2022-10-24T21:22:13.199Z,53.70
2022-10-24T21:32:14.563Z,53.22
2022-10-24T21:42:15.989Z,53.32
2022-10-24T21:52:17.391Z,53.34
2022-10-24T22:02:19.250Z,53.74
2022-10-24T22:12:20.759Z,53.73
2022-10-24T22:22:22.237Z,53.88
2022-10-24T22:32:23.901Z,53.84
2022-10-24T22:42:25.359Z,54.03
2022-10-24T22:52:27.001Z,54.04
2022-10-24T23:02:30.281Z,54.08
2022-10-24T23:12:31.912Z,54.33
2022-10-24T23:22:33.446Z,54.44
2022-10-24T23:32:37.471Z,54.32
2022-10-24T23:42:39.149Z,54.18
2022-10-24T23:52:54.441Z,54.49
